createdAt,value
2018-06-12T00:02:04.076Z,17.5
2018-06-12T00:07:04.790Z,17.4
2018-06-12T00:12:04.616Z,17.2
2018-06-12T00:17:04.796Z,17.2
2018-06-12T00:22:04.779Z,17.1
2018-06-12T00:27:04.541Z,17.2
2018-06-12T00:32:04.489Z,17.2
2018-06-12T00:37:04.144Z,17.2
2018-06-12T00:42:04.831Z,17.2
2018-06-12T00:47:04.484Z,17.2
2018-06-12T00:52:04.202Z,17.0
2018-06-12T00:57:05.078Z,17.0
2018-06-12T01:02:05.057Z,16.8
2018-06-12T01:07:04.817Z,16.6
2018-06-12T01:12:04.302Z,16.6
2018-06-12T01:17:05.047Z,16.7
2018-06-12T01:22:04.424Z,17.0
2018-06-12T01:27:04.195Z,16.9
2018-06-12T01:32:04.594Z,17.0
2018-06-12T01:37:04.650Z,17.1
2018-06-12T01:42:04.511Z,17.2
2018-06-12T01:47:04.414Z,17.3
2018-06-12T01:52:04.856Z,17.4
2018-06-12T01:57:04.069Z,17.5
2018-06-12T02:02:04.600Z,17.6
2018-06-12T02:07:04.263Z,17.6
2018-06-12T02:12:03.957Z,17.7
2018-06-12T02:17:04.661Z,17.7
2018-06-12T02:22:04.538Z,17.6
2018-06-12T02:27:04.422Z,17.5
2018-06-12T02:32:04.330Z,17.4
2018-06-12T02:37:04.056Z,17.2
2018-06-12T02:42:04.395Z,17.2
2018-06-12T02:47:11.946Z,17.1
2018-06-12T02:52:04.385Z,16.9
2018-06-12T02:57:04.748Z,16.9
2018-06-12T03:02:14.352Z,16.9
2018-06-12T03:07:04.962Z,16.9
2018-06-12T03:12:04.655Z,16.8
2018-06-12T03:17:15.141Z,16.9
2018-06-12T03:22:04.048Z,16.8
2018-06-12T03:27:04.453Z,16.9
2018-06-12T03:32:14.674Z,17.0
2018-06-12T03:37:04.259Z,17.1
2018-06-12T03:42:04.362Z,17.3
2018-06-12T03:47:14.453Z,17.5
2018-06-12T03:52:04.115Z,17.4
2018-06-12T03:57:04.680Z,17.6
2018-06-12T04:02:14.702Z,17.7
2018-06-12T04:07:04.685Z,17.9
2018-06-12T04:12:04.267Z,18.1
2018-06-12T04:17:19.844Z,18.1
2018-06-12T04:22:04.072Z,18.4
2018-06-12T04:27:04.796Z,18.5
2018-06-12T04:32:14.601Z,18.5
2018-06-12T04:37:04.159Z,18.7
2018-06-12T04:42:04.188Z,18.8
2018-06-12T04:47:14.249Z,18.9
2018-06-12T04:52:04.200Z,19.0
2018-06-12T04:57:04.906Z,19.1
2018-06-12T05:02:09.745Z,19.2
2018-06-12T05:07:04.480Z,19.3
2018-06-12T05:12:04.463Z,19.4
2018-06-12T05:17:12.922Z,19.4
2018-06-12T05:22:04.195Z,19.3
2018-06-12T05:27:04.194Z,19.3
2018-06-12T05:32:10.337Z,19.5
2018-06-12T05:37:04.934Z,19.6
2018-06-12T05:42:04.288Z,19.6
2018-06-12T05:47:14.384Z,19.8
2018-06-12T05:52:04.769Z,20.1
2018-06-12T05:57:04.495Z,20.1
2018-06-12T06:02:17.536Z,20.1
2018-06-12T06:07:04.141Z,20.0
2018-06-12T06:12:04.200Z,20.0
2018-06-12T06:17:09.976Z,20.1
2018-06-12T06:22:04.381Z,20.3
2018-06-12T06:27:04.269Z,20.3
2018-06-12T06:32:17.440Z,20.6
2018-06-12T06:37:04.473Z,21.0
2018-06-12T06:42:04.172Z,21.3
2018-06-12T06:47:11.337Z,21.6
2018-06-12T06:52:04.484Z,21.9
2018-06-12T06:57:04.418Z,22.0
2018-06-12T07:02:17.709Z,22.1
2018-06-12T07:07:04.129Z,21.9
2018-06-12T07:12:04.675Z,21.7
2018-06-12T07:17:17.638Z,21.7
2018-06-12T07:22:04.533Z,21.7
2018-06-12T07:27:04.524Z,21.9
2018-06-12T07:32:17.756Z,22.2
2018-06-12T07:37:04.289Z,22.6
2018-06-12T07:42:04.192Z,23.0
2018-06-12T07:47:13.849Z,23.3
2018-06-12T07:52:04.501Z,23.2
2018-06-12T07:57:04.769Z,23.3
2018-06-12T08:02:15.029Z,23.4
2018-06-12T08:07:04.049Z,23.6
2018-06-12T08:12:04.579Z,24.0
2018-06-12T08:17:12.210Z,24.4
2018-06-12T08:22:03.955Z,24.9
2018-06-12T08:27:04.429Z,25.3
2018-06-12T08:32:15.096Z,26.1
2018-06-12T08:37:04.049Z,27.1
2018-06-12T08:42:04.022Z,27.1
2018-06-12T08:47:14.939Z,26.7
2018-06-12T08:52:03.943Z,26.3
2018-06-12T08:57:04.001Z,26.4
2018-06-12T09:02:09.801Z,26.8
2018-06-12T09:07:04.423Z,27.1
2018-06-12T09:12:04.474Z,26.9
2018-06-12T09:17:14.997Z,26.5
2018-06-12T09:22:04.603Z,26.1
2018-06-12T09:27:04.623Z,25.8
2018-06-12T09:32:13.378Z,25.8
2018-06-12T09:37:04.776Z,26.0
2018-06-12T09:42:04.876Z,25.9
2018-06-12T09:47:13.989Z,25.7
2018-06-12T09:52:04.704Z,26.0
2018-06-12T09:57:04.801Z,26.8
2018-06-12T10:02:14.391Z,26.8
2018-06-12T10:07:04.377Z,26.9
2018-06-12T10:12:04.620Z,26.9
2018-06-12T10:17:15.731Z,26.5
2018-06-12T10:22:04.680Z,27.1
2018-06-12T10:27:04.289Z,27.1
2018-06-12T10:32:12.397Z,28.1
2018-06-12T10:37:03.987Z,28.6
2018-06-12T10:42:04.866Z,28.7
2018-06-12T10:47:04.525Z,28.8
2018-06-12T10:52:04.573Z,28.9
2018-06-12T10:57:04.652Z,29.2
2018-06-12T11:02:14.856Z,29.2
2018-06-12T11:07:04.421Z,30.3
2018-06-12T11:12:03.933Z,30.3
2018-06-12T11:17:13.596Z,30.6
2018-06-12T11:22:04.433Z,30.4
2018-06-12T11:27:04.471Z,30.6
2018-06-12T11:32:14.824Z,30.8
2018-06-12T11:37:04.689Z,30.6
2018-06-12T11:42:04.262Z,30.5
2018-06-12T11:47:19.118Z,29.6
2018-06-12T11:52:03.786Z,28.6
2018-06-12T11:57:04.298Z,27.1
2018-06-12T12:02:14.305Z,27.1
2018-06-12T12:07:04.545Z,26.2
2018-06-12T12:12:04.240Z,25.3
2018-06-12T12:17:17.913Z,23.4
2018-06-12T12:22:04.722Z,23.3
2018-06-12T12:27:04.079Z,22.5
2018-06-12T12:32:19.241Z,22.1
2018-06-12T12:37:04.294Z,21.9
2018-06-12T12:42:03.898Z,21.9
2018-06-12T12:47:14.300Z,21.8
2018-06-12T12:52:04.110Z,21.8
2018-06-12T12:57:04.727Z,22.2
2018-06-12T13:02:14.849Z,22.2
2018-06-12T13:07:04.388Z,22.6
2018-06-12T13:12:04.446Z,22.9
2018-06-12T13:17:16.034Z,23.3
2018-06-12T13:22:04.266Z,24.1
2018-06-12T13:27:04.451Z,24.1
2018-06-12T13:32:14.244Z,24.6
2018-06-12T13:37:04.496Z,25.1
2018-06-12T13:42:04.282Z,25.3
2018-06-12T13:47:14.289Z,25.7
2018-06-12T13:52:04.415Z,27.4
2018-06-12T13:57:04.166Z,27.4
2018-06-12T14:02:15.043Z,28.0
2018-06-12T14:07:04.221Z,28.2
2018-06-12T14:12:04.334Z,28.3
2018-06-12T14:17:10.209Z,27.9
2018-06-12T14:22:04.664Z,27.4
2018-06-12T14:27:04.667Z,27.0
2018-06-12T14:32:15.117Z,26.7
2018-06-12T14:37:04.649Z,26.1
2018-06-12T14:42:04.614Z,26.2
2018-06-12T14:47:09.917Z,25.7
2018-06-12T14:52:04.529Z,25.7
2018-06-12T14:57:04.508Z,25.4
2018-06-12T15:02:14.412Z,25.0
2018-06-12T15:07:04.701Z,23.9
2018-06-12T15:12:05.369Z,23.9
2018-06-12T15:17:13.432Z,23.3
2018-06-12T15:22:04.075Z,23.0
2018-06-12T15:27:04.133Z,22.7
2018-06-12T15:32:14.558Z,22.6
2018-06-12T15:37:04.738Z,22.6
2018-06-12T15:42:03.965Z,22.7
2018-06-12T15:47:14.090Z,22.6
2018-06-12T15:52:04.362Z,22.6
2018-06-12T15:57:04.178Z,22.5
2018-06-12T16:02:05.478Z,22.5
2018-06-12T16:07:04.773Z,22.5
2018-06-12T16:12:05.012Z,22.8
2018-06-12T16:17:05.314Z,23.6
2018-06-12T16:22:04.188Z,23.6
2018-06-12T16:27:04.173Z,24.0
2018-06-12T16:32:14.559Z,24.2
2018-06-12T16:37:04.085Z,24.0
2018-06-12T16:42:04.194Z,23.6
2018-06-12T16:47:18.578Z,23.6
2018-06-12T16:52:04.047Z,23.6
2018-06-12T16:57:04.155Z,23.7
2018-06-12T17:02:17.332Z,23.8
2018-06-12T17:07:05.012Z,24.1
2018-06-12T17:12:04.390Z,24.1
2018-06-12T17:17:18.618Z,24.3
2018-06-12T17:22:04.725Z,24.3
2018-06-12T17:27:04.076Z,24.2
2018-06-12T17:32:18.676Z,23.9
2018-06-12T17:37:04.046Z,23.7
2018-06-12T17:42:04.100Z,23.5
2018-06-12T17:47:14.836Z,23.3
2018-06-12T17:52:04.309Z,23.2
2018-06-12T17:57:04.805Z,23.0
2018-06-12T18:02:14.373Z,22.8
2018-06-12T18:07:04.230Z,22.2
2018-06-12T18:12:03.965Z,21.8
2018-06-12T18:17:19.264Z,21.8
2018-06-12T18:22:04.520Z,21.4
2018-06-12T18:27:04.583Z,21.0
2018-06-12T18:32:11.269Z,20.6
2018-06-12T18:37:04.094Z,20.2
2018-06-12T18:42:04.502Z,19.8
2018-06-12T18:47:19.668Z,19.5
2018-06-12T18:52:04.104Z,19.3
2018-06-12T18:57:04.627Z,19.2
2018-06-12T19:02:12.584Z,19.0
2018-06-12T19:07:04.832Z,18.9
2018-06-12T19:12:04.984Z,18.8
2018-06-12T19:17:18.242Z,18.8
2018-06-12T19:22:04.511Z,18.7
2018-06-12T19:27:04.229Z,18.6
2018-06-12T19:32:14.809Z,18.5
2018-06-12T19:37:04.669Z,18.5
2018-06-12T19:42:03.902Z,18.4
2018-06-12T19:47:14.719Z,18.3
2018-06-12T19:52:04.155Z,18.2
2018-06-12T19:57:04.470Z,18.1
2018-06-12T20:02:08.353Z,17.9
2018-06-12T20:07:04.917Z,17.8
2018-06-12T20:12:04.429Z,17.8
2018-06-12T20:17:04.733Z,17.8
2018-06-12T20:22:04.065Z,17.8
2018-06-12T20:27:04.318Z,17.9
2018-06-12T20:32:04.852Z,17.8
2018-06-12T20:37:03.845Z,17.8
2018-06-12T20:42:04.385Z,17.7
2018-06-12T20:47:05.037Z,17.6
2018-06-12T20:52:04.724Z,17.6
2018-06-12T20:57:03.898Z,17.5
2018-06-12T21:02:04.591Z,17.3
2018-06-12T21:07:04.348Z,17.2
2018-06-12T21:12:04.511Z,17.1
2018-06-12T21:17:05.030Z,17.1
2018-06-12T21:22:04.128Z,17.0
2018-06-12T21:27:04.722Z,16.7
2018-06-12T21:32:04.235Z,16.7
2018-06-12T21:37:04.327Z,16.6
2018-06-12T21:42:04.646Z,16.6
2018-06-12T21:47:04.924Z,16.5
2018-06-12T21:52:04.241Z,16.4
2018-06-12T21:57:04.704Z,16.4
2018-06-12T22:02:04.250Z,16.3
2018-06-12T22:07:03.942Z,16.2
2018-06-12T22:12:04.550Z,16.2
2018-06-12T22:22:22.049Z,16.0
2018-06-12T22:27:21.822Z,15.9
2018-06-12T22:32:21.995Z,15.9
2018-06-12T22:37:21.110Z,15.8
2018-06-12T22:42:21.668Z,15.8
2018-06-12T22:47:21.455Z,15.7
2018-06-12T22:52:21.171Z,15.7
2018-06-12T22:57:21.636Z,15.6
2018-06-12T23:02:21.434Z,15.6
2018-06-12T23:07:21.121Z,15.5
2018-06-12T23:12:04.640Z,15.5
2018-06-12T23:17:04.735Z,15.4
2018-06-12T23:22:04.748Z,15.4
2018-06-12T23:27:04.250Z,15.3
2018-06-12T23:32:07.669Z,15.1
2018-06-12T23:37:04.852Z,15.0
2018-06-12T23:42:04.544Z,15.0
2018-06-12T23:47:04.821Z,15.0
2018-06-12T23:52:04.603Z,15.0
2018-06-12T23:57:04.472Z,15.0
